Time;durP1;ratioP1;P1;durP2;ratioP2;P2;SDS_P1;SDS_P2;PMS_P1;PMS_P2;Temp;Humidity;BMP_temperature;BMP_pressure;BME280_temperature;BME280_humidity;BME280_pressure;Samples;Min_cycle;Max_cycle;Signal;HPM_P1;HPM_P2
2024/04/05 00:01:41;;;;;;;1.30;1.30;;;11.90;99.90;;;;;;5061298;28;20289;-62
2024/04/05 00:04:08;;;;;;;2.00;1.73;;;11.90;99.90;;;;;;5053127;28;20675;-62
2024/04/05 00:06:35;;;;;;;2.00;1.90;;;11.90;99.90;;;;;;5053000;28;20208;-62
2024/04/05 00:09:03;;;;;;;1.70;1.67;;;12.00;99.90;;;;;;5052018;28;20207;-62
2024/04/05 00:11:31;;;;;;;3.83;2.20;;;12.00;99.90;;;;;;5053170;28;20225;-62
2024/04/05 00:13:58;;;;;;;2.93;2.60;;;12.00;99.90;;;;;;5061202;28;20273;-62
2024/04/05 00:16:24;;;;;;;1.47;1.37;;;11.90;99.90;;;;;;5053588;28;20256;-62
2024/04/05 00:18:51;;;;;;;2.10;1.30;;;11.90;99.90;;;;;;5052091;28;20689;-62
2024/04/05 00:21:17;;;;;;;1.87;1.77;;;11.90;99.90;;;;;;5052648;28;20225;-62
2024/04/05 00:23:45;;;;;;;2.20;1.40;;;11.90;99.90;;;;;;5053695;28;20216;-62
2024/04/05 00:26:11;;;;;;;1.77;1.67;;;12.00;99.90;;;;;;5064482;28;20223;-62
2024/04/05 00:28:40;;;;;;;2.23;1.97;;;11.90;99.90;;;;;;5067409;28;20196;-61
2024/04/05 00:31:08;;;;;;;1.97;1.73;;;12.00;99.90;;;;;;5072851;28;20328;-62
2024/04/05 00:33:35;;;;;;;2.10;2.00;;;12.00;99.90;;;;;;5072784;28;20283;-62
2024/04/05 00:36:02;;;;;;;1.70;1.60;;;12.00;99.90;;;;;;5072236;28;20205;-62
2024/04/05 00:38:29;;;;;;;2.10;2.00;;;11.90;99.90;;;;;;5062373;28;20255;-62
2024/04/05 00:40:55;;;;;;;2.07;1.87;;;11.90;99.90;;;;;;5058343;28;20247;-61
2024/04/05 00:43:23;;;;;;;2.70;2.50;;;11.90;99.90;;;;;;5052350;28;20252;-61
2024/04/05 00:45:51;;;;;;;1.93;1.83;;;11.90;99.90;;;;;;5052352;28;20751;-61
2024/04/05 00:48:20;;;;;;;2.57;2.37;;;11.80;99.90;;;;;;5051625;28;20204;-62
2024/04/05 00:50:48;;;;;;;2.90;2.70;;;11.80;99.90;;;;;;5060374;28;20928;-62
2024/04/05 00:53:19;;;;;;;4.33;2.20;;;11.80;99.90;;;;;;5055562;28;20196;-61
2024/04/05 00:55:46;;;;;;;2.40;2.20;;;11.80;99.90;;;;;;5052601;28;20753;-61
2024/04/05 00:58:14;;;;;;;2.47;2.27;;;11.90;99.90;;;;;;5052435;28;20200;-61
2024/04/05 01:00:40;;;;;;;3.33;2.10;;;11.90;99.90;;;;;;5052522;28;20225;-62
2024/04/05 01:03:08;;;;;;;4.13;2.43;;;11.80;99.90;;;;;;5059868;28;20228;-61
2024/04/05 01:05:38;;;;;;;3.07;1.67;;;11.80;99.90;;;;;;5060507;28;20197;-61
2024/04/05 01:08:06;;;;;;;3.27;2.67;;;;;;;;;;5061344;28;20251;-62
2024/04/05 01:10:32;;;;;;;3.90;2.30;;;;;;;;;;5072097;28;20231;-61
2024/04/05 01:13:00;;;;;;;2.33;2.13;;;;;;;;;;5072076;28;20198;-62
2024/04/05 01:15:26;;;;;;;2.03;1.87;;;;;;;;;;5062664;28;20259;-61
2024/04/05 01:17:57;;;;;;;2.13;2.03;;;;;;;;;;5057184;28;20193;-61
2024/04/05 01:20:26;;;;;;;2.50;2.40;;;;;;;;;;5058235;28;20711;-61
2024/04/05 01:22:55;;;;;;;3.83;2.50;;;;;;;;;;5059856;28;20254;-62
2024/04/05 01:25:23;;;;;;;2.73;2.50;;;;;;;;;;5049604;28;20580;-62
2024/04/05 01:27:50;;;;;;;2.60;2.30;;;;;;;;;;5059699;28;20211;-61
2024/04/05 01:30:16;;;;;;;2.87;2.30;;;;;;;;;;5052743;28;20278;-61
2024/04/05 01:32:47;;;;;;;5.37;2.83;;;;;;;;;;5052067;28;20200;-61
2024/04/05 01:35:14;;;;;;;2.97;2.07;;;;;;;;;;5051853;28;20219;-61
2024/04/05 01:37:41;;;;;;;3.27;1.83;;;;;;;;;;5051007;28;20200;-61
2024/04/05 01:40:07;;;;;;;2.10;2.00;;;;;;;;;;5066393;28;20236;-62
2024/04/05 01:42:36;;;;;;;2.07;1.87;;;;;;;;;;5059606;28;20252;-61
2024/04/05 01:45:02;;;;;;;1.37;1.10;;;;;;;;;;5059870;28;20196;-61
2024/04/05 01:47:30;;;;;;;1.40;1.30;;;;;;;;;;5068870;28;20204;-61
2024/04/05 01:49:56;;;;;;;1.73;1.63;;;;;;;;;;5071485;28;20235;-62
2024/04/05 01:52:23;;;;;;;1.47;1.37;;;;;;;;;;5062033;28;20213;-62
2024/04/05 01:54:50;;;;;;;1.60;1.50;;;;;;;;;;5057930;28;20206;-61
2024/04/05 01:57:17;;;;;;;2.47;1.60;;;;;;;;;;5051528;28;20199;-61
2024/04/05 01:59:47;;;;;;;3.10;1.77;;;;;;;;;;5050646;28;20673;-62
2024/04/05 02:02:14;;;;;;;2.30;1.10;;;;;;;;;;5053440;28;20249;-61
2024/04/05 02:04:41;;;;;;;1.60;1.47;;;;;;;;;;5062935;28;20207;-61
2024/04/05 02:07:08;;;;;;;3.07;1.40;;;;;;;;;;5059583;28;20200;-63
2024/04/05 02:09:34;;;;;;;1.90;1.73;;;;;;;;;;5054684;28;20201;-61
2024/04/05 02:12:02;;;;;;;1.43;1.30;;;;;;;;;;5055220;28;20284;-61
2024/04/05 02:14:28;;;;;;;3.07;1.80;;;;;;;;;;5055272;28;20265;-61
2024/04/05 02:16:58;;;;;;;3.13;1.70;;;;;;;;;;5061234;28;20190;-61
2024/04/05 02:19:24;;;;;;;2.67;1.77;;;;;;;;;;5062677;28;20747;-61
2024/04/05 02:21:51;;;;;;;2.10;1.43;;;;;;;;;;5055376;28;20676;-61
2024/04/05 02:24:18;;;;;;;5.97;1.43;;;;;;;;;;5055343;28;20569;-61
2024/04/05 02:26:45;;;;;;;2.43;2.23;;;;;;;;;;5055706;28;20254;-61
2024/04/05 02:29:11;;;;;;;1.03;1.03;;;;;;;;;;5064696;28;20212;-61
2024/04/05 02:31:39;;;;;;;1.60;1.50;;;;;;;;;;5063750;28;20212;-61
2024/04/05 02:34:06;;;;;;;2.50;2.40;;;;;;;;;;5055464;28;20303;-61
2024/04/05 02:36:33;;;;;;;2.10;2.00;;;;;;;;;;5064104;28;20195;-61
2024/04/05 02:39:00;;;;;;;4.13;3.10;;;;;;;;;;5069945;28;20250;-61
2024/04/05 02:41:27;;;;;;;4.77;2.00;;;;;;;;;;5062067;28;20222;-61
2024/04/05 02:43:53;;;;;;;3.70;2.47;;;;;;;;;;5063093;28;20228;-61
2024/04/05 02:46:21;;;;;;;2.03;1.90;;;;;;;;;;5055114;28;20282;-60
2024/04/05 02:48:47;;;;;;;2.30;1.60;;;;;;;;;;5054115;28;20212;-61
2024/04/05 02:51:15;;;;;;;3.43;1.63;;;;;;;;;;5054920;28;20242;-61
2024/04/05 02:53:42;;;;;;;2.00;1.43;;;;;;;;;;5059816;28;20197;-61
2024/04/05 02:56:09;;;;;;;1.43;1.33;;;;;;;;;;5062809;28;20196;-63
2024/04/05 02:58:35;;;;;;;2.83;1.57;;;;;;;;;;5054415;28;20208;-61
2024/04/05 03:01:02;;;;;;;3.23;1.13;;;;;;;;;;5061976;28;20300;-63
2024/04/05 03:03:29;;;;;;;2.93;1.20;;;;;;;;;;5064142;28;20215;-64
2024/04/05 03:05:56;;;;;;;5.73;3.10;;;;;;;;;;5056875;28;20216;-61
2024/04/05 03:08:24;;;;;;;4.47;2.90;;;;;;;;;;5074426;28;20257;-61
2024/04/05 03:10:51;;;;;;;2.00;1.90;;;;;;;;;;5073923;28;20220;-61
2024/04/05 03:13:17;;;;;;;1.80;1.70;;;;;;;;;;5065556;28;20732;-61
2024/04/05 03:15:44;;;;;;;2.07;1.70;;;;;;;;;;5055000;28;20684;-61
2024/04/05 03:18:11;;;;;;;1.13;1.10;;;;;;;;;;5053600;28;20208;-61
2024/04/05 03:20:38;;;;;;;1.33;1.23;;;;;;;;;;5054208;28;20231;-61
2024/04/05 03:23:06;;;;;;;2.90;1.80;;;;;;;;;;5057198;28;20222;-61
2024/04/05 03:25:35;;;;;;;1.90;1.73;;;;;;;;;;5063491;28;20196;-61
2024/04/05 03:28:01;;;;;;;1.90;1.20;;;11.20;99.90;;;;;;5064912;28;20262;-61
2024/04/05 03:30:28;;;;;;;2.03;1.47;;;11.20;99.90;;;;;;5052596;28;20216;-61
2024/04/05 03:32:58;;;;;;;1.87;1.77;;;11.10;99.90;;;;;;5054063;28;20669;-61
2024/04/05 03:35:25;;;;;;;1.07;1.07;;;11.10;99.90;;;;;;5051764;28;20244;-63
2024/04/05 03:37:53;;;;;;;1.50;1.40;;;11.00;99.90;;;;;;5064248;28;20226;-61
2024/04/05 03:40:19;;;;;;;1.60;1.50;;;10.90;99.90;;;;;;5070821;28;20228;-61
2024/04/05 03:42:47;;;;;;;1.93;1.10;;;10.90;99.90;;;;;;5073723;28;20606;-61
2024/04/05 03:45:14;;;;;;;1.30;1.30;;;10.80;99.90;;;;;;5073877;28;20199;-61
2024/04/05 03:47:41;;;;;;;1.70;1.43;;;10.80;99.90;;;;;;5072453;28;20200;-61
2024/04/05 03:50:08;;;;;;;3.70;2.20;;;10.70;99.90;;;;;;5064264;28;20596;-61
2024/04/05 03:52:35;;;;;;;4.10;2.00;;;10.70;99.90;;;;;;5054446;28;20205;-61
2024/04/05 03:55:01;;;;;;;2.03;1.87;;;10.70;99.90;;;;;;5053719;28;20207;-61
2024/04/05 03:57:28;;;;;;;1.87;1.60;;;10.70;99.90;;;;;;5065820;28;20200;-61
2024/04/05 03:59:56;;;;;;;3.00;1.10;;;10.60;99.90;;;;;;5073397;28;20223;-61
2024/04/05 04:02:23;;;;;;;2.03;1.40;;;10.60;99.90;;;;;;5063196;28;20223;-61
2024/04/05 04:04:51;;;;;;;1.47;1.37;;;10.60;99.90;;;;;;5060166;28;20287;-61
2024/04/05 04:07:18;;;;;;;2.13;1.93;;;10.50;99.90;;;;;;5065126;28;20270;-61
2024/04/05 04:09:46;;;;;;;1.23;1.20;;;10.50;99.90;;;;;;5072592;28;20312;-62
2024/04/05 04:12:14;;;;;;;2.40;1.70;;;10.40;99.90;;;;;;5073244;28;20577;-61
2024/04/05 04:14:40;;;;;;;2.07;1.40;;;10.40;99.90;;;;;;5063375;28;20746;-62
2024/04/05 04:17:09;;;;;;;2.07;1.90;;;10.50;99.90;;;;;;5066887;28;20200;-61
2024/04/05 04:19:35;;;;;;;2.60;1.40;;;10.40;99.90;;;;;;5062824;28;20213;-61
2024/04/05 04:22:02;;;;;;;3.73;1.80;;;10.40;99.90;;;;;;5058716;28;20207;-61
2024/04/05 04:24:29;;;;;;;1.17;1.17;;;10.40;99.90;;;;;;5053249;28;20208;-61
2024/04/05 04:26:56;;;;;;;3.30;1.47;;;10.50;99.90;;;;;;5060484;28;20668;-61
2024/04/05 04:29:23;;;;;;;1.97;1.30;;;10.40;99.90;;;;;;5063150;28;20630;-61
2024/04/05 04:31:50;;;;;;;2.83;1.17;;;10.40;99.90;;;;;;5053956;28;20664;-61
2024/04/05 04:34:18;;;;;;;1.63;1.13;;;10.40;99.90;;;;;;5072291;28;20200;-61
2024/04/05 04:36:45;;;;;;;0.70;0.70;;;10.40;99.90;;;;;;5066164;28;20208;-60
2024/04/05 04:39:11;;;;;;;0.83;0.83;;;10.50;99.90;;;;;;5067198;28;20203;-61
2024/04/05 04:41:38;;;;;;;1.57;0.80;;;10.60;99.90;;;;;;5072351;28;20654;-60
2024/04/05 04:44:04;;;;;;;0.50;0.50;;;10.50;99.90;;;;;;5072409;28;20215;-61
2024/04/05 04:46:32;;;;;;;2.23;0.50;;;10.60;99.90;;;;;;5064270;28;20574;-61
2024/04/05 04:48:58;;;;;;;0.60;0.50;;;10.70;99.90;;;;;;5051551;28;20580;-60
2024/04/05 04:51:27;;;;;;;1.70;0.50;;;10.80;99.90;;;;;;5053929;28;20227;-61
2024/04/05 04:53:54;;;;;;;1.20;0.97;;;10.90;99.90;;;;;;5051844;28;20285;-61
2024/04/05 04:56:21;;;;;;;5.40;1.00;;;10.90;99.90;;;;;;5065856;28;21521;-60
2024/04/05 04:58:47;;;;;;;4.57;1.63;;;10.90;99.90;;;;;;5051661;28;20200;-61
2024/04/05 05:01:15;;;;;;;0.50;0.50;;;10.90;99.90;;;;;;5052295;28;20729;-60
2024/04/05 05:03:41;;;;;;;1.60;1.00;;;10.90;99.90;;;;;;5052086;28;20629;-61
2024/04/05 05:06:08;;;;;;;3.37;3.07;;;10.90;99.90;;;;;;5052379;28;20222;-60
2024/04/05 05:08:35;;;;;;;2.73;2.43;;;10.90;99.90;;;;;;5056915;28;20202;-62
2024/04/05 05:11:02;;;;;;;4.97;3.30;;;11.00;99.90;;;;;;5072434;28;20217;-61
2024/04/05 05:13:28;;;;;;;2.50;2.07;;;10.90;99.90;;;;;;5072102;28;20254;-62
2024/04/05 05:15:55;;;;;;;2.27;1.77;;;10.80;99.90;;;;;;5072165;28;20204;-61
2024/04/05 05:18:21;;;;;;;0.60;0.53;;;10.80;99.90;;;;;;5051955;28;20209;-61
2024/04/05 05:20:49;;;;;;;0.50;0.50;;;10.80;99.90;;;;;;5051749;28;20214;-61
2024/04/05 05:23:15;;;;;;;0.80;0.70;;;10.80;99.90;;;;;;5071244;28;20251;-61
2024/04/05 05:25:45;;;;;;;0.90;0.40;;;10.90;99.90;;;;;;5071780;28;20193;-61
2024/04/05 05:28:11;;;;;;;0.97;0.40;;;11.10;99.90;;;;;;5070785;28;20207;-61
2024/04/05 05:30:39;;;;;;;0.67;0.67;;;11.20;99.90;;;;;;5071567;28;20231;-61
2024/04/05 05:33:05;;;;;;;1.20;0.80;;;11.30;99.90;;;;;;5070937;28;20263;-61
2024/04/05 05:35:32;;;;;;;4.13;3.33;;;11.40;99.90;;;;;;5071205;28;20237;-62
2024/04/05 05:38:00;;;;;;;6.00;3.07;;;11.50;99.90;;;;;;5069921;28;20202;-60
2024/04/05 05:40:27;;;;;;;5.90;3.17;;;11.50;99.90;;;;;;5051727;28;20229;-60
2024/04/05 05:42:58;;;;;;;5.37;2.87;;;11.60;99.90;;;;;;5051530;28;20225;-60
2024/04/05 05:45:25;;;;;;;2.13;1.93;;;11.70;99.90;;;;;;5052857;28;20208;-60
2024/04/05 05:47:56;;;;;;;1.83;1.67;;;11.80;99.90;;;;;;5063580;28;20259;-59
2024/04/05 05:50:24;;;;;;;3.97;1.23;;;11.90;99.90;;;;;;5066179;28;20225;-60
2024/04/05 05:52:50;;;;;;;3.07;1.40;;;11.90;99.90;;;;;;5071591;28;20256;-59
2024/04/05 05:55:18;;;;;;;1.13;0.90;;;11.90;99.90;;;;;;5071405;28;20668;-60
2024/04/05 05:57:44;;;;;;;0.70;0.60;;;12.10;99.90;;;;;;5070600;28;20195;-59
2024/04/05 06:00:13;;;;;;;0.60;0.60;;;12.10;99.90;;;;;;5072027;28;20217;-60
2024/04/05 06:02:40;;;;;;;1.97;0.50;;;12.20;99.90;;;;;;5067035;28;20219;-59
2024/04/05 06:05:11;;;;;;;0.60;0.60;;;12.40;99.90;;;;;;5060800;28;20579;-60
2024/04/05 06:07:38;;;;;;;5.60;1.17;;;12.50;99.90;;;;;;5069884;28;20551;-60
2024/04/05 06:10:06;;;;;;;5.10;1.30;;;12.90;99.90;;;;;;5071327;28;20209;-60
2024/04/05 06:12:35;;;;;;;2.97;1.50;;;13.10;99.90;;;;;;5069523;28;20291;-59
2024/04/05 06:15:04;;;;;;;3.97;2.83;;;13.10;99.90;;;;;;5056907;28;20190;-60
2024/04/05 06:17:34;;;;;;;3.73;1.30;;;13.10;99.90;;;;;;5050546;28;20687;-60
2024/04/05 06:20:01;;;;;;;5.80;0.67;;;13.00;99.90;;;;;;5063383;28;20217;-59
2024/04/05 06:22:27;;;;;;;0.60;0.30;;;13.20;99.90;;;;;;5070363;28;20585;-60
2024/04/05 06:24:55;;;;;;;0.50;0.40;;;14.30;99.90;;;;;;5068005;28;20442;-58
2024/04/05 06:27:21;;;;;;;1.07;0.33;;;;;;;;;;5058304;28;20561;-59
2024/04/05 06:29:49;;;;;;;0.80;0.50;;;;;;;;;;5064624;28;20224;-61
2024/04/05 06:32:16;;;;;;;1.25;0.43;;;;;;;;;;5060232;28;20473;-63
2024/04/05 06:34:45;;;;;;;1.17;0.40;;;;;;;;;;5063719;28;20209;-62
2024/04/05 06:37:11;;;;;;;0.77;0.40;;;;;;;;;;5060755;28;20258;-63
2024/04/05 06:39:40;;;;;;;0.63;0.40;;;;;;;;;;5053549;28;20189;-61
2024/04/05 06:42:06;;;;;;;2.30;0.50;;;17.90;99.90;;;;;;5054443;28;20235;-60
2024/04/05 06:44:35;;;;;;;1.43;0.30;;;18.60;99.90;;;;;;5067911;28;20221;-61
2024/04/05 06:47:03;;;;;;;2.03;0.30;;;18.70;99.90;;;;;;5068934;28;20193;-61
2024/04/05 06:49:32;;;;;;;0.30;0.30;;;19.40;99.90;;;;;;5068936;28;20682;-62
2024/04/05 06:52:00;;;;;;;0.60;0.53;;;20.00;99.90;;;;;;5061572;28;20225;-61
2024/04/05 06:54:28;;;;;;;0.60;0.60;;;19.80;99.90;;;;;;5070290;28;20783;-61
2024/04/05 06:56:54;;;;;;;1.07;0.30;;;19.90;99.90;;;;;;5073420;28;20208;-62
2024/04/05 06:59:21;;;;;;;1.03;0.53;;;20.30;99.90;;;;;;5072956;28;20754;-62
2024/04/05 07:01:47;;;;;;;0.33;0.33;;;20.20;99.90;;;;;;5065674;28;20225;-61
2024/04/05 07:04:14;;;;;;;0.93;0.40;;;20.50;99.90;;;;;;5058038;28;20267;-62
2024/04/05 07:06:40;;;;;;;0.37;0.37;;;20.80;99.90;;;;;;5069300;28;20248;-61
2024/04/05 07:09:08;;;;;;;1.77;0.40;;;20.90;99.90;;;;;;5067418;28;20197;-61
2024/04/05 07:11:37;;;;;;;1.80;0.30;;;20.50;99.90;;;;;;5061349;28;20224;-61
2024/04/05 07:14:04;;;;;;;1.40;0.47;;;20.00;99.90;;;;;;5065324;28;20273;-61
2024/04/05 07:16:31;;;;;;;0.47;0.47;;;;;;;;;;5062174;28;20698;-61
2024/04/05 07:18:58;;;;;;;0.60;0.60;;;;;;;;;;5064624;28;20201;-61
2024/04/05 07:21:24;;;;;;;0.93;0.50;;;;;;;;;;5056600;28;20313;-62
2024/04/05 07:23:54;;;;;;;2.07;0.40;;;;;;;;;;5055330;28;20214;-61
2024/04/05 07:26:22;;;;;;;0.30;0.30;;;;;;;;;;5069081;28;20205;-61
2024/04/05 07:28:51;;;;;;;1.73;0.27;;;;;;;;;;5060502;28;20198;-62
2024/04/05 07:31:18;;;;;;;1.43;0.30;;;;;;;;;;5061259;28;20313;-61
2024/04/05 07:33:45;;;;;;;1.27;0.33;;;;;;;;;;5063309;28;20190;-62
2024/04/05 07:36:11;;;;;;;0.77;0.40;;;;;;;;;;5061877;28;20666;-62
2024/04/05 07:38:38;;;;;;;1.27;0.30;;;;;;;;;;5059640;28;20589;-62
2024/04/05 07:41:05;;;;;;;2.53;0.40;;;;;;;;;;5068820;28;20268;-62
2024/04/05 07:43:34;;;;;;;2.97;0.40;;;;;;;;;;5061810;28;20220;-61
2024/04/05 07:46:00;;;;;;;0.27;0.23;;;;;;;;;;5060834;28;20201;-61
2024/04/05 07:48:29;;;;;;;1.30;0.37;;;;;;;;;;5068053;28;20204;-62
2024/04/05 07:50:57;;;;;;;1.33;0.30;;;;;;;;;;5063487;28;20221;-62
2024/04/05 07:53:25;;;;;;;0.37;0.37;;;;;;;;;;5063887;28;20200;-61
2024/04/05 07:55:51;;;;;;;0.77;0.40;;;;;;;;;;5064696;28;20200;-62
2024/04/05 07:58:18;;;;;;;2.53;0.50;;;;;;;;;;5064430;28;20193;-62
2024/04/05 08:00:46;;;;;;;0.80;0.80;;;;;;;;;;5056399;28;20221;-61
2024/04/05 08:03:14;;;;;;;3.13;0.70;;;;;;;;;;5062167;28;20227;-62
2024/04/05 08:05:40;;;;;;;0.60;0.30;;;;;;;;;;5064583;28;20244;-62
2024/04/05 08:08:08;;;;;;;0.30;0.30;;;;;;;;;;5064211;28;20202;-62
2024/04/05 08:10:34;;;;;;;5.30;0.40;;;;;;;;;;5061283;28;20217;-62
2024/04/05 08:13:04;;;;;;;0.60;0.43;;;;;;;;;;5064662;28;20200;-62
2024/04/05 08:15:31;;;;;;;0.43;0.30;;;;;;;;;;5060967;28;20201;-62
2024/04/05 08:18:02;;;;;;;1.50;0.40;;;;;;;;;;5055205;28;20654;-62
2024/04/05 08:20:28;;;;;;;1.20;0.47;;;;;;;;;;5070230;28;20731;-62
2024/04/05 08:22:58;;;;;;;0.30;0.30;;;;;;;;;;5072264;28;20196;-62
2024/04/05 08:25:25;;;;;;;0.63;0.40;;;;;;;;;;5072554;28;20242;-62
2024/04/05 08:27:56;;;;;;;0.77;0.40;;;;;;;;;;5063748;28;20197;-62
2024/04/05 08:30:22;;;;;;;2.87;0.40;;;;;;;;;;5065177;28;20225;-62
2024/04/05 08:32:49;;;;;;;1.10;0.30;;;;;;;;;;5060986;28;20297;-62
2024/04/05 08:35:17;;;;;;;1.80;0.30;;;;;;;;;;5052358;28;20658;-62
2024/04/05 08:37:44;;;;;;;0.40;0.33;;;;;;;;;;5052130;28;20252;-62
2024/04/05 08:40:12;;;;;;;0.50;0.30;;;;;;;;;;5052410;28;20225;-62
2024/04/05 08:42:39;;;;;;;1.90;0.40;;;;;;;;;;5052536;28;20198;-62
2024/04/05 08:45:06;;;;;;;1.73;0.30;;;;;;;;;;5052060;28;20697;-62
2024/04/05 08:47:34;;;;;;;4.67;0.40;;;25.10;99.90;;;;;;5051793;28;20259;-62
2024/04/05 08:50:03;;;;;;;6.83;0.40;;;25.30;99.90;;;;;;5052308;28;20242;-62
2024/04/05 08:52:31;;;;;;;0.73;0.33;;;25.50;99.90;;;;;;5052607;28;20292;-62
2024/04/05 08:54:59;;;;;;;1.80;0.40;;;26.00;99.90;;;;;;5055649;28;20736;-62
2024/04/05 08:57:30;;;;;;;0.30;0.30;;;26.60;99.90;;;;;;5071339;28;20258;-62
2024/04/05 08:59:58;;;;;;;0.40;0.40;;;;;;;;;;5064332;28;20296;-62
2024/04/05 09:02:25;;;;;;;0.40;0.20;;;;;;;;;;5052086;28;20831;-62
2024/04/05 09:04:52;;;;;;;1.00;0.27;;;;;;;;;;5052090;28;20253;-62
2024/04/05 09:07:21;;;;;;;0.30;0.30;;;;;;;;;;5052185;28;20619;-62
2024/04/05 09:09:49;;;;;;;2.10;0.20;;;;;;;;;;5052052;28;20217;-62
2024/04/05 09:12:21;;;;;;;0.40;0.23;;;24.00;99.90;;;;;;5051852;28;20225;-62
2024/04/05 09:14:57;;;;;;;1.17;0.20;;;24.10;99.90;;;;;;5066814;28;20545;-61
2024/04/05 09:17:24;;;;;;;0.87;0.30;;;24.80;99.90;;;;;;5071170;28;20622;-62
2024/04/05 09:19:52;;;;;;;0.63;0.20;;;24.90;99.90;;;;;;5071411;28;20209;-62
2024/04/05 09:22:18;;;;;;;1.13;0.20;;;25.20;99.90;;;;;;5071993;28;20205;-62
2024/04/05 09:24:45;;;;;;;1.23;0.20;;;25.60;99.90;;;;;;5071800;28;20302;-62
2024/04/05 09:27:18;;;;;;;0.20;0.20;;;25.40;99.90;;;;;;5072013;28;20601;-62
2024/04/05 09:29:45;;;;;;;1.93;0.30;;;;;;;;;;5067359;28;20577;-62
2024/04/05 09:32:17;;;;;;;0.40;0.40;;;;;;;;;;5051664;28;20202;-61
2024/04/05 09:34:46;;;;;;;0.53;0.53;;;;;;;;;;5051617;28;20221;-62
2024/04/05 09:37:14;;;;;;;0.53;0.20;;;;;;;;;;5069570;28;20197;-62
2024/04/05 09:39:46;;;;;;;1.40;0.57;;;;;;;;;;5069362;28;20280;-61
2024/04/05 09:42:15;;;;;;;0.40;0.20;;;;;;;;;;5057292;28;20212;-62
2024/04/05 09:44:58;;;;;;;0.13;0.13;;;;;;;;;;5068422;28;20217;-62
2024/04/05 09:47:26;;;;;;;0.20;0.20;;;;;;;;;;5070662;28;20201;-61
2024/04/05 09:49:53;;;;;;;1.87;0.27;;;;;;;;;;5069082;28;20689;-62
2024/04/05 09:52:24;;;;;;;0.20;0.13;;;;;;;;;;5070674;28;20735;-62
2024/04/05 09:54:55;;;;;;;0.20;0.20;;;;;;;;;;5070813;28;20678;-62
2024/04/05 09:57:23;;;;;;;0.20;0.20;;;;;;;;;;5070001;28;20201;-61
2024/04/05 09:59:52;;;;;;;0.20;0.20;;;;;;;;;;5070580;28;20225;-62
2024/04/05 10:02:19;;;;;;;0.20;0.20;;;;;;;;;;5070507;28;20680;-62
2024/04/05 10:04:46;;;;;;;0.20;0.20;;;;;;;;;;5070566;28;20270;-62
2024/04/05 10:07:14;;;;;;;1.30;0.20;;;;;;;;;;5070529;28;20692;-62
2024/04/05 10:09:41;;;;;;;0.20;0.20;;;;;;;;;;5069452;28;20193;-62
2024/04/05 10:12:11;;;;;;;0.10;0.10;;;;;;;;;;5070295;28;20216;-62
2024/04/05 10:14:40;;;;;;;3.63;0.45;;;;;;;;;;5070643;28;20204;-62
2024/04/05 10:17:07;;;;;;;1.17;0.40;;;;;;;;;;5066507;28;20529;-62
2024/04/05 10:19:36;;;;;;;0.30;0.20;;;;;;;;;;5058847;28;20485;-62
2024/04/05 10:22:05;;;;;;;1.65;0.20;;;;;;;;;;5052792;28;20251;-62
2024/04/05 10:24:32;;;;;;;1.65;0.20;;;;;;;;;;5060061;28;20776;-62
2024/04/05 10:26:59;;;;;;;0.20;0.20;;;;;;;;;;5058079;28;20198;-62
2024/04/05 10:29:26;;;;;;;0.50;0.20;;;;;;;;;;5066064;28;20201;-62
2024/04/05 10:32:01;;;;;;;0.10;0.10;;;;;;;;;;5061963;28;20251;-62
2024/04/05 10:34:30;;;;;;;0.50;0.20;;;28.30;92.10;;;;;;5058536;28;20217;-61
2024/04/05 10:36:56;;;;;;;0.35;0.30;;;28.40;90.30;;;;;;5055972;28;20232;-62
2024/04/05 10:39:23;;;;;;;0.15;0.15;;;28.60;89.10;;;;;;5060605;28;20201;-62
2024/04/05 10:41:50;;;;;;;0.88;0.47;;;28.20;86.50;;;;;;5053280;28;20218;-62
2024/04/05 10:44:18;;;;;;;0.75;0.10;;;27.90;89.40;;;;;;5053474;28;20218;-62
2024/04/05 10:46:47;;;;;;;0.95;0.10;;;27.90;90.80;;;;;;5053543;28;20204;-62
2024/04/05 10:49:17;;;;;;;0.20;0.17;;;27.90;85.80;;;;;;5062055;28;20207;-61
2024/04/05 10:51:44;;;;;;;0.52;0.28;;;27.50;87.20;;;;;;5028191;28;1323047;-62
2024/04/05 10:54:12;;;;;;;1.38;0.20;;;26.90;88.50;;;;;;5074376;28;20276;-63
2024/04/05 10:56:39;;;;;;;0.70;0.10;;;26.70;90.30;;;;;;5074873;28;20204;-69
2024/04/05 10:59:07;;;;;;;0.13;0.10;;;26.20;88.10;;;;;;5064158;28;20204;-75
2024/04/05 11:01:35;;;;;;;1.10;0.20;;;26.10;90.90;;;;;;5073287;28;20240;-73
2024/04/05 11:04:04;;;;;;;1.35;0.20;;;26.20;92.20;;;;;;5074476;28;20276;-72
2024/04/05 11:06:32;;;;;;;0.10;0.10;;;26.30;90.80;;;;;;5064558;28;20210;-71
2024/04/05 11:08:59;;;;;;;0.10;0.10;;;26.10;92.50;;;;;;5060636;28;20205;-74
2024/04/05 11:11:26;;;;;;;2.33;0.20;;;26.00;92.20;;;;;;5062144;28;20222;-71
2024/04/05 11:14:02;;;;;;;0.20;0.20;;;26.20;93.70;;;;;;5065271;28;20645;-74
2024/04/05 11:16:29;;;;;;;0.20;0.10;;;26.10;91.60;;;;;;5072436;28;20211;-72
2024/04/05 11:18:56;;;;;;;0.63;0.23;;;26.20;91.30;;;;;;5073328;28;20201;-73
2024/04/05 11:21:22;;;;;;;0.20;0.20;;;26.20;90.20;;;;;;5074151;28;20275;-69
2024/04/05 11:23:52;;;;;;;0.73;0.10;;;26.00;91.60;;;;;;5068972;28;20217;-68
2024/04/05 11:26:20;;;;;;;1.10;0.20;;;25.90;91.00;;;;;;5062167;28;20201;-62
2024/04/05 11:28:47;;;;;;;1.13;0.20;;;25.80;90.50;;;;;;5053200;28;20201;-62
2024/04/05 11:31:14;;;;;;;0.60;0.10;;;25.80;90.60;;;;;;5054129;28;20271;-62
2024/04/05 11:33:41;;;;;;;0.55;0.20;;;25.90;91.40;;;;;;5054583;28;20712;-62
2024/04/05 11:36:07;;;;;;;0.23;0.23;;;25.80;91.10;;;;;;5058645;28;20666;-62
2024/04/05 11:38:34;;;;;;;0.30;0.10;;;25.60;92.10;;;;;;5092362;22;20708;-59
2024/04/05 11:41:03;;;;;;;0.27;0.10;;;25.70;94.50;;;;;;5072215;28;20251;-59
2024/04/05 11:43:30;;;;;;;0.10;0.10;;;25.80;92.60;;;;;;5072130;28;20201;-59
2024/04/05 11:45:56;;;;;;;0.20;0.13;;;25.80;94.30;;;;;;5071684;28;20201;-59
2024/04/05 11:48:23;;;;;;;0.75;0.10;;;25.80;94.00;;;;;;5034508;28;20273;-59
2024/04/05 11:50:50;;;;;;;0.40;0.10;;;25.80;93.20;;;;;;5035527;28;20226;-59
2024/04/05 11:53:17;;;;;;;0.10;0.10;;;25.80;92.20;;;;;;5042284;28;20282;-59
2024/04/05 11:55:43;;;;;;;1.33;0.10;;;25.70;93.90;;;;;;5019379;28;20198;-59
2024/04/05 11:58:12;;;;;;;0.10;0.10;;;25.70;92.40;;;;;;5027046;28;20306;-59
2024/04/05 12:00:38;;;;;;;0.30;0.30;;;25.60;91.30;;;;;;5041912;28;20205;-59
2024/04/05 12:03:05;;;;;;;0.32;0.17;;;25.60;93.10;;;;;;5051812;28;20244;-59
2024/04/05 12:05:33;;;;;;;0.20;0.20;;;25.80;94.90;;;;;;5028578;28;20598;-59
2024/04/05 12:08:00;;;;;;;0.70;0.30;;;25.70;91.30;;;;;;5042744;28;20217;-59
2024/04/05 12:10:26;;;;;;;1.55;0.68;;;25.50;91.70;;;;;;5051678;28;20201;-59
2024/04/05 12:12:53;;;;;;;0.10;0.10;;;25.50;94.10;;;;;;5025738;28;20266;-58
2024/04/05 12:15:21;;;;;;;0.13;0.13;;;25.50;92.30;;;;;;5022001;28;20270;-58
2024/04/05 12:17:48;;;;;;;0.20;0.00;;;25.60;96.00;;;;;;5029081;28;20567;-58
2024/04/05 12:20:14;;;;;;;0.47;0.30;;;25.60;93.20;;;;;;5016997;28;20306;-58
2024/04/05 12:22:41;;;;;;;0.10;0.10;;;25.60;93.70;;;;;;5023296;28;20202;-60
2024/04/05 12:25:07;;;;;;;0.00;0.00;;;25.60;91.90;;;;;;5017201;28;20699;-58
2024/04/05 12:27:36;;;;;;;0.40;0.20;;;25.30;91.40;;;;;;5024745;28;20254;-59
2024/04/05 12:30:03;;;;;;;0.53;0.20;;;25.20;93.40;;;;;;5012141;28;20287;-58
2024/04/05 12:32:31;;;;;;;0.20;0.10;;;25.30;93.80;;;;;;5021280;28;20195;-58
2024/04/05 12:34:57;;;;;;;0.47;0.13;;;25.40;91.40;;;;;;5024816;28;20202;-58
2024/04/05 12:37:27;;;;;;;0.40;0.10;;;25.40;90.90;;;;;;5013970;28;20231;-57
2024/04/05 12:39:54;;;;;;;0.10;0.10;;;25.20;91.90;;;;;;5016121;28;20585;-57
2024/04/05 12:42:22;;;;;;;0.90;0.30;;;25.20;91.60;;;;;;5025716;28;20286;-60
2024/04/05 12:44:49;;;;;;;0.10;0.10;;;25.40;94.80;;;;;;5017427;28;20623;-58
2024/04/05 12:47:16;;;;;;;0.10;0.10;;;25.60;93.30;;;;;;5012005;28;20190;-58
2024/04/05 12:49:45;;;;;;;3.17;0.40;;;25.70;92.70;;;;;;5011477;28;20261;-57
2024/04/05 12:52:10;;;;;;;2.10;0.30;;;25.50;95.90;;;;;;5019635;28;20245;-57
2024/04/05 12:54:37;;;;;;;0.80;0.50;;;25.40;94.70;;;;;;5012439;28;20278;-58
2024/04/05 12:57:04;;;;;;;1.77;0.40;;;25.20;97.50;;;;;;5021237;28;20203;-58
2024/04/05 12:59:31;;;;;;;0.83;0.83;;;24.70;99.20;;;;;;5010188;28;20643;-57
2024/04/05 13:01:57;;;;;;;0.40;0.40;;;24.30;99.40;;;;;;5022151;28;20202;-58
2024/04/05 13:04:24;;;;;;;1.50;0.67;;;24.30;99.80;;;;;;5024988;28;20226;-58
2024/04/05 13:06:52;;;;;;;1.70;0.80;;;24.20;99.70;;;;;;5027842;28;20199;-58
2024/04/05 13:09:19;;;;;;;1.07;0.60;;;24.00;99.30;;;;;;5029777;28;20226;-58
2024/04/05 13:11:45;;;;;;;0.33;0.33;;;23.80;99.90;;;;;;5030363;28;20678;-59
2024/04/05 13:14:12;;;;;;;0.73;0.73;;;23.90;99.90;;;;;;5028475;28;20241;-58
2024/04/05 13:16:38;;;;;;;4.40;0.50;;;24.00;99.90;;;;;;5030641;28;20281;-58
2024/04/05 13:19:05;;;;;;;2.03;0.77;;;23.90;99.90;;;;;;5033395;28;20731;-58
2024/04/05 13:21:31;;;;;;;0.60;0.43;;;23.90;99.90;;;;;;5032891;28;20213;-58
2024/04/05 13:23:59;;;;;;;0.40;0.40;;;23.90;98.70;;;;;;5030346;28;20202;-58
2024/04/05 13:26:25;;;;;;;2.10;0.60;;;24.10;99.60;;;;;;5038043;28;20202;-59
2024/04/05 13:28:54;;;;;;;2.77;0.50;;;24.10;99.90;;;;;;5029065;28;20698;-58
2024/04/05 13:31:21;;;;;;;2.57;0.73;;;24.00;99.90;;;;;;5022112;28;20206;-57